sensor_id;sensor_type;location;lat;lon;timestamp;pressure;altitude;pressure_sealevel;temperature;humidity
36600;BME280;35385;55.668;37.508;2022-12-18T00:00:43;-238479.16;;;50.97;68.06
36600;BME280;35385;55.668;37.508;2022-12-18T00:01:44;-238298.81;;;50.99;53.75
36600;BME280;35385;55.668;37.508;2022-12-18T00:02:44;-238165.06;;;51.01;43.22
36600;BME280;35385;55.668;37.508;2022-12-18T00:03:45;-237678.78;;;51.08;2.54
36600;BME280;35385;55.668;37.508;2022-12-18T00:04:45;-237171.25;;;51.15;0.00
36600;BME280;35385;55.668;37.508;2022-12-18T00:05:49;-236886.72;;;51.19;0.00
36600;BME280;35385;55.668;37.508;2022-12-18T00:06:50;-237058.16;;;51.16;0.00
36600;BME280;35385;55.668;37.508;2022-12-18T00:07:51;-237058.16;;;51.16;0.00
36600;BME280;35385;55.668;37.508;2022-12-18T00:08:51;-236715.59;;;51.21;0.00
36600;BME280;35385;55.668;37.508;2022-12-18T00:09:52;-237189.97;;;51.15;0.00
36600;BME280;35385;55.668;37.508;2022-12-18T00:10:52;-236480.38;;;51.24;0.00
36600;BME280;35385;55.668;37.508;2022-12-18T00:11:52;-237189.97;;;51.15;0.00
36600;BME280;35385;55.668;37.508;2022-12-18T00:12:53;-237230.91;;;51.14;0.00
36600;BME280;35385;55.668;37.508;2022-12-18T00:13:54;-237711.50;;;51.08;2.54
36600;BME280;35385;55.668;37.508;2022-12-18T00:14:55;-238091.38;;;51.03;33.01
36600;BME280;35385;55.668;37.508;2022-12-18T00:15:55;-237706.84;;;51.08;2.54
36600;BME280;35385;55.668;37.508;2022-12-18T00:16:55;-237494.13;;;51.11;0.00
36600;BME280;35385;55.668;37.508;2022-12-18T00:17:58;-237453.22;;;51.11;0.00
36600;BME280;35385;55.668;37.508;2022-12-18T00:18:59;-237417.50;;;51.12;0.00
36600;BME280;35385;55.668;37.508;2022-12-18T00:19:59;-237240.22;;;51.14;0.00
36600;BME280;35385;55.668;37.508;2022-12-18T00:21:01;-237281.22;;;51.14;0.00
36600;BME280;35385;55.668;37.508;2022-12-18T00:22:01;-237373.28;;;51.13;0.00
36600;BME280;35385;55.668;37.508;2022-12-18T00:23:02;-237538.34;;;51.10;0.00
36600;BME280;35385;55.668;37.508;2022-12-18T00:24:02;-237203.97;;;51.15;0.00
36600;BME280;35385;55.668;37.508;2022-12-18T00:25:03;-237417.50;;;51.12;0.00
36600;BME280;35385;55.668;37.508;2022-12-18T00:26:07;-237826.72;;;51.06;10.10
36600;BME280;35385;55.668;37.508;2022-12-18T00:27:08;-238312.06;;;51.00;48.67
36600;BME280;35385;55.668;37.508;2022-12-18T00:28:08;-238199.66;;;51.02;38.14
36600;BME280;35385;55.668;37.508;2022-12-18T00:29:13;-237903.81;;;51.06;15.26
36600;BME280;35385;55.668;37.508;2022-12-18T00:30:16;-238190.31;;;51.02;38.12
36600;BME280;35385;55.668;37.508;2022-12-18T00:31:18;-237683.88;;;51.09;0.00
36600;BME280;35385;55.668;37.508;2022-12-18T00:32:18;-237688.53;;;51.09;0.00
36600;BME280;35385;55.668;37.508;2022-12-18T00:33:18;-237766.38;;;51.07;4.91
36600;BME280;35385;55.668;37.508;2022-12-18T00:34:19;-237543.00;;;51.10;0.00
36600;BME280;35385;55.668;37.508;2022-12-18T00:35:19;-238068.47;;;51.03;27.90
36600;BME280;35385;55.668;37.508;2022-12-18T00:36:20;-238452.38;;;50.98;57.98
36600;BME280;35385;55.668;37.508;2022-12-18T00:37:21;-238700.19;;;50.95;78.10
36600;BME280;35385;55.668;37.508;2022-12-18T00:38:22;-238396.94;;;50.99;53.73
36600;BME280;35385;55.668;37.508;2022-12-18T00:39:22;-238006.88;;;51.04;22.75
36600;BME280;35385;55.668;37.508;2022-12-18T00:40:22;-238066.41;;;51.04;25.90
36600;BME280;35385;55.668;37.508;2022-12-18T00:41:23;-238016.22;;;51.04;22.74
36600;BME280;35385;55.668;37.508;2022-12-18T00:42:42;-237669.06;;;51.09;0.00
36600;BME280;35385;55.668;37.508;2022-12-18T00:43:57;-237815.25;;;51.07;8.08
36600;BME280;35385;55.668;37.508;2022-12-18T00:44:58;-237186.84;;;51.16;0.00
36600;BME280;35385;55.668;37.508;2022-12-18T00:45:58;-237156.59;;;51.16;0.00
36600;BME280;35385;55.668;37.508;2022-12-18T00:46:58;-237255.34;;;51.15;0.00
36600;BME280;35385;55.668;37.508;2022-12-18T00:47:59;-237292.72;;;51.15;0.00
36600;BME280;35385;55.668;37.508;2022-12-18T00:48:59;-236555.09;;;51.24;0.00
36600;BME280;35385;55.668;37.508;2022-12-18T00:49:59;-236422.94;;;51.26;0.00
36600;BME280;35385;55.668;37.508;2022-12-18T00:51:00;-236634.50;;;51.23;0.00
36600;BME280;35385;55.668;37.508;2022-12-18T00:52:00;-236634.50;;;51.23;0.00
36600;BME280;35385;55.668;37.508;2022-12-18T00:53:01;-237448.03;;;51.13;0.00
36600;BME280;35385;55.668;37.508;2022-12-18T00:54:01;-237551.31;;;51.11;0.00
36600;BME280;35385;55.668;37.508;2022-12-18T00:55:01;-238119.88;;;51.03;27.89
36600;BME280;35385;55.668;37.508;2022-12-18T00:56:02;-237678.19;;;51.10;0.00
36600;BME280;35385;55.668;37.508;2022-12-18T00:57:02;-237476.09;;;51.13;0.00
36600;BME280;35385;55.668;37.508;2022-12-18T00:58:02;-236935.97;;;51.20;0.00
36600;BME280;35385;55.668;37.508;2022-12-18T00:59:03;-237320.75;;;51.15;0.00
36600;BME280;35385;55.668;37.508;2022-12-18T01:00:04;-237959.69;;;51.06;13.26
36600;BME280;35385;55.668;37.508;2022-12-18T01:01:05;-238733.53;;;50.96;73.04
36600;BME280;35385;55.668;37.508;2022-12-18T01:02:06;-238946.38;;;50.93;88.40
36600;BME280;35385;55.668;37.508;2022-12-18T01:03:06;-237837.66;;;51.08;2.54
36600;BME280;35385;55.668;37.508;2022-12-18T01:04:07;-237494.75;;;51.13;0.00
36600;BME280;35385;55.668;37.508;2022-12-18T01:05:08;-237054.91;;;51.19;0.00
36600;BME280;35385;55.668;37.508;2022-12-18T01:06:09;-237085.19;;;51.18;0.00
36600;BME280;35385;55.668;37.508;2022-12-18T01:07:10;-237040.88;;;51.19;0.00
36600;BME280;35385;55.668;37.508;2022-12-18T01:08:10;-237683.22;;;51.10;0.00
36600;BME280;35385;55.668;37.508;2022-12-18T01:09:11;-237922.75;;;51.07;8.07
36600;BME280;35385;55.668;37.508;2022-12-18T01:10:11;-237673.88;;;51.10;0.00
36600;BME280;35385;55.668;37.508;2022-12-18T01:11:14;-237045.53;;;51.19;0.00
36600;BME280;35385;55.668;37.508;2022-12-18T01:12:15;-236516.38;;;51.26;0.00
36600;BME280;35385;55.668;37.508;2022-12-18T01:13:15;-236261.09;;;51.29;0.00
36600;BME280;35385;55.668;37.508;2022-12-18T01:14:16;-236586.44;;;51.25;0.00
36600;BME280;35385;55.668;37.508;2022-12-18T01:15:16;-236922.06;;;51.21;0.00
36600;BME280;35385;55.668;37.508;2022-12-18T01:16:17;-237005.00;;;51.19;0.00
36600;BME280;35385;55.668;37.508;2022-12-18T01:17:17;-237308.31;;;51.16;0.00
36600;BME280;35385;55.668;37.508;2022-12-18T01:18:18;-236973.34;;;51.20;0.00
36600;BME280;35385;55.668;37.508;2022-12-18T01:19:18;-236220.28;;;51.30;0.00
36600;BME280;35385;55.668;37.508;2022-12-18T01:20:19;-235990.44;;;51.33;0.00
36600;BME280;35385;55.668;37.508;2022-12-18T01:21:19;-236676.59;;;51.24;0.00
36600;BME280;35385;55.668;37.508;2022-12-18T01:22:19;-236820.31;;;51.22;0.00
36600;BME280;35385;55.668;37.508;2022-12-18T01:23:20;-236922.06;;;51.21;0.00
36600;BME280;35385;55.668;37.508;2022-12-18T01:24:20;-237176.53;;;51.17;0.00
36600;BME280;35385;55.668;37.508;2022-12-18T01:25:21;-236790.03;;;51.23;0.00
36600;BME280;35385;55.668;37.508;2022-12-18T01:26:21;-236535.03;;;51.26;0.00
36600;BME280;35385;55.668;37.508;2022-12-18T01:27:22;-236780.69;;;51.23;0.00
36600;BME280;35385;55.668;37.508;2022-12-18T01:28:22;-236061.16;;;51.32;0.00
36600;BME280;35385;55.668;37.508;2022-12-18T01:29:22;-236577.13;;;51.25;0.00
36600;BME280;35385;55.668;37.508;2022-12-18T01:30:23;-236454.19;;;51.27;0.00
36600;BME280;35385;55.668;37.508;2022-12-18T01:31:25;-236699.91;;;51.23;0.00
36600;BME280;35385;55.668;37.508;2022-12-18T01:32:26;-236426.16;;;51.27;0.00
36600;BME280;35385;55.668;37.508;2022-12-18T01:33:26;-237148.50;;;51.17;0.00
36600;BME280;35385;55.668;37.508;2022-12-18T01:34:26;-237334.75;;;51.15;0.00
36600;BME280;35385;55.668;37.508;2022-12-18T01:35:27;-237339.41;;;51.15;0.00
36600;BME280;35385;55.668;37.508;2022-12-18T01:36:28;-237883.22;;;51.07;4.91
36600;BME280;35385;55.668;37.508;2022-12-18T01:37:29;-237655.16;;;51.10;0.00
36600;BME280;35385;55.668;37.508;2022-12-18T01:38:29;-237178.75;;;51.17;0.00
36600;BME280;35385;55.668;37.508;2022-12-18T01:39:30;-236884.69;;;51.21;0.00
36600;BME280;35385;55.668;37.508;2022-12-18T01:40:31;-237275.63;;;51.16;0.00
36600;BME280;35385;55.668;37.508;2022-12-18T01:41:32;-237602.75;;;51.11;0.00
36600;BME280;35385;55.668;37.508;2022-12-18T01:42:51;-238159.88;;;51.04;25.89
36600;BME280;35385;55.668;37.508;2022-12-18T01:43:53;-238389.31;;;51.01;43.21
36600;BME280;35385;55.668;37.508;2022-12-18T01:46:00;-237358.13;;;51.15;0.00
36600;BME280;35385;55.668;37.508;2022-12-18T01:47:00;-237289.66;;;51.16;0.00
36600;BME280;35385;55.668;37.508;2022-12-18T01:48:02;-236727.94;;;51.23;0.00
36600;BME280;35385;55.668;37.508;2022-12-18T01:49:03;-237167.22;;;51.17;0.00
36600;BME280;35385;55.668;37.508;2022-12-18T01:51:08;-236963.97;;;51.20;0.00
36600;BME280;35385;55.668;37.508;2022-12-18T01:52:09;-237094.50;;;51.18;0.00
36600;BME280;35385;55.668;37.508;2022-12-18T01:53:13;-237226.38;;;51.16;0.00
36600;BME280;35385;55.668;37.508;2022-12-18T01:54:14;-237553.03;;;51.12;0.00
36600;BME280;35385;55.668;37.508;2022-12-18T01:55:14;-237167.22;;;51.17;0.00
36600;BME280;35385;55.668;37.508;2022-12-18T01:56:16;-236292.84;;;51.29;0.00
36600;BME280;35385;55.668;37.508;2022-12-18T01:57:18;-236495.31;;;51.26;0.00
36600;BME280;35385;55.668;37.508;2022-12-18T01:58:19;-236811.00;;;51.22;0.00
36600;BME280;35385;55.668;37.508;2022-12-18T01:59:19;-236525.69;;;51.26;0.00
36600;BME280;35385;55.668;37.508;2022-12-18T02:00:20;-236220.28;;;51.30;0.00
36600;BME280;35385;55.668;37.508;2022-12-18T02:01:22;-236070.53;;;51.32;0.00
36600;BME280;35385;55.668;37.508;2022-12-18T02:02:23;-236525.69;;;51.26;0.00
36600;BME280;35385;55.668;37.508;2022-12-18T02:03:23;-236727.94;;;51.23;0.00
36600;BME280;35385;55.668;37.508;2022-12-18T02:04:25;-237176.53;;;51.17;0.00
36600;BME280;35385;55.668;37.508;2022-12-18T02:05:45;-237337.22;;;51.15;0.00
36600;BME280;35385;55.668;37.508;2022-12-18T02:06:47;-237701.88;;;51.10;0.00
36600;BME280;35385;55.668;37.508;2022-12-18T02:12:29;-236364.38;;;51.28;0.00
36600;BME280;35385;55.668;37.508;2022-12-18T02:15:09;-235242.31;;;51.43;0.00
36600;BME280;35385;55.668;37.508;2022-12-18T02:17:27;-235765.50;;;51.36;0.00
36600;BME280;35385;55.668;37.508;2022-12-18T02:18:35;-235618.19;;;51.38;0.00
36600;BME280;35385;55.668;37.508;2022-12-18T02:20:45;-236116.03;;;51.31;0.00
36600;BME280;35385;55.668;37.508;2022-12-18T02:27:08;-236261.09;;;51.29;0.00
36600;BME280;35385;55.668;37.508;2022-12-18T02:28:10;-236521.03;;;51.26;0.00
36600;BME280;35385;55.668;37.508;2022-12-18T02:30:48;-236849.31;;;51.22;0.00
36600;BME280;35385;55.668;37.508;2022-12-18T02:31:51;-237430.72;;;51.14;0.00
36600;BME280;35385;55.668;37.508;2022-12-18T02:32:52;-237714.78;;;51.10;0.00
36600;BME280;35385;55.668;37.508;2022-12-18T02:33:58;-237946.09;;;51.07;8.07
36600;BME280;35385;55.668;37.508;2022-12-18T02:35:00;-238006.41;;;51.06;13.25
36600;BME280;35385;55.668;37.508;2022-12-18T02:36:03;-238159.88;;;51.04;25.88
36600;BME280;35385;55.668;37.508;2022-12-18T02:37:06;-238330.50;;;51.02;38.09
36600;BME280;35385;55.668;37.508;2022-12-18T02:38:08;-238379.97;;;51.01;43.19
36600;BME280;35385;55.668;37.508;2022-12-18T02:39:10;-237992.41;;;51.06;13.25
36600;BME280;35385;55.668;37.508;2022-12-18T02:40:11;-237621.41;;;51.11;0.00
36600;BME280;35385;55.668;37.508;2022-12-18T02:41:13;-237358.13;;;51.15;0.00
36600;BME280;35385;55.668;37.508;2022-12-18T02:42:14;-237743.59;;;51.10;0.00
36600;BME280;35385;55.668;37.508;2022-12-18T02:43:16;-238006.41;;;51.06;13.24
36600;BME280;35385;55.668;37.508;2022-12-18T02:44:17;-237992.41;;;51.06;13.25
36600;BME280;35385;55.668;37.508;2022-12-18T02:45:17;-238068.09;;;51.05;18.42
36600;BME280;35385;55.668;37.508;2022-12-18T02:46:28;-238471.59;;;51.00;50.58
36600;BME280;35385;55.668;37.508;2022-12-18T02:47:32;-238240.88;;;51.03;32.99
36600;BME280;35385;55.668;37.508;2022-12-18T02:48:33;-237563.19;;;51.12;0.00
36600;BME280;35385;55.668;37.508;2022-12-18T02:49:40;-237203.00;;;51.16;0.00
36600;BME280;35385;55.668;37.508;2022-12-18T02:50:45;-237217.03;;;51.16;0.00
36600;BME280;35385;55.668;37.508;2022-12-18T02:53:14;-236704.56;;;51.23;0.00
36600;BME280;35385;55.668;37.508;2022-12-18T02:54:27;-236516.38;;;51.26;0.00
36600;BME280;35385;55.668;37.508;2022-12-18T02:56:46;-236982.69;;;51.20;0.00
36600;BME280;35385;55.668;37.508;2022-12-18T02:57:56;-236718.59;;;51.23;0.00
36600;BME280;35385;55.668;37.508;2022-12-18T02:59:06;-236667.22;;;51.24;0.00
36600;BME280;35385;55.668;37.508;2022-12-18T03:00:12;-236727.94;;;51.23;0.00
36600;BME280;35385;55.668;37.508;2022-12-18T03:01:19;-236737.28;;;51.23;0.00
36600;BME280;35385;55.668;37.508;2022-12-18T03:02:29;-236697.59;;;51.24;0.00
36600;BME280;35385;55.668;37.508;2022-12-18T03:03:40;-236486.91;;;51.27;0.00
36600;BME280;35385;55.668;37.508;2022-12-18T03:05:01;-235452.34;;;51.41;0.00
36600;BME280;35385;55.668;37.508;2022-12-18T03:07:05;-235969.31;;;51.34;0.00
36600;BME280;35385;55.668;37.508;2022-12-18T03:08:14;-235688.84;;;51.38;0.00
36600;BME280;35385;55.668;37.508;2022-12-18T03:09:24;-235466.31;;;51.41;0.00
36600;BME280;35385;55.668;37.508;2022-12-18T03:10:29;-235531.59;;;51.40;0.00
36600;BME280;35385;55.668;37.508;2022-12-18T03:11:31;-234860.22;;;51.49;0.00
36600;BME280;35385;55.668;37.508;2022-12-18T03:12:52;-234869.53;;;51.49;0.00
36600;BME280;35385;55.668;37.508;2022-12-18T03:13:54;-234596.34;;;51.52;0.00
36600;BME280;35385;55.668;37.508;2022-12-18T03:16:00;-235452.34;;;51.41;0.00
36600;BME280;35385;55.668;37.508;2022-12-18T03:17:02;-235558.53;;;51.39;0.00
36600;BME280;35385;55.668;37.508;2022-12-18T03:18:04;-236107.91;;;51.32;0.00
36600;BME280;35385;55.668;37.508;2022-12-18T03:19:14;-236158.06;;;51.31;0.00
36600;BME280;35385;55.668;37.508;2022-12-18T03:20:17;-235755.63;;;51.36;0.00
36600;BME280;35385;55.668;37.508;2022-12-18T03:21:21;-234697.66;;;51.51;0.00
36600;BME280;35385;55.668;37.508;2022-12-18T03:22:23;-234841.50;;;51.49;0.00
36600;BME280;35385;55.668;37.508;2022-12-18T03:23:27;-234962.13;;;51.47;0.00
36600;BME280;35385;55.668;37.508;2022-12-18T03:24:29;-234900.91;;;51.48;0.00
36600;BME280;35385;55.668;37.508;2022-12-18T03:25:31;-235414.97;;;51.41;0.00
36600;BME280;35385;55.668;37.508;2022-12-18T03:26:34;-234577.66;;;51.52;0.00
36600;BME280;35385;55.668;37.508;2022-12-18T03:27:35;-234564.25;;;51.52;0.00
36600;BME280;35385;55.668;37.508;2022-12-18T03:28:45;-235237.66;;;51.43;0.00
36600;BME280;35385;55.668;37.508;2022-12-18T03:29:48;-236000.78;;;51.33;0.00
36600;BME280;35385;55.668;37.508;2022-12-18T03:30:56;-235489.53;;;51.40;0.00
36600;BME280;35385;55.668;37.508;2022-12-18T03:32:02;-235558.53;;;51.39;0.00
36600;BME280;35385;55.668;37.508;2022-12-18T03:34:05;-236061.16;;;51.32;0.00
36600;BME280;35385;55.668;37.508;2022-12-18T03:35:09;-235955.28;;;51.34;0.00
36600;BME280;35385;55.668;37.508;2022-12-18T03:36:11;-235359.94;;;51.42;0.00
36600;BME280;35385;55.668;37.508;2022-12-18T03:37:12;-234781.66;;;51.49;0.00
36600;BME280;35385;55.668;37.508;2022-12-18T03:38:12;-234761.75;;;51.50;0.00
36600;BME280;35385;55.668;37.508;2022-12-18T03:39:13;-234636.34;;;51.52;0.00
36600;BME280;35385;55.668;37.508;2022-12-18T03:40:13;-234340.09;;;51.55;0.00
36600;BME280;35385;55.668;37.508;2022-12-18T03:43:35;-233760.88;;;51.64;0.00
36600;BME280;35385;55.668;37.508;2022-12-18T03:47:38;-234968.88;;;51.47;0.00
36600;BME280;35385;55.668;37.508;2022-12-18T03:48:44;-235646.22;;;51.38;0.00
36600;BME280;35385;55.668;37.508;2022-12-18T03:50:55;-235088.03;;;51.45;0.00
36600;BME280;35385;55.668;37.508;2022-12-18T03:52:01;-235843.78;;;51.35;0.00
36600;BME280;35385;55.668;37.508;2022-12-18T03:53:13;-235689.97;;;51.37;0.00
36600;BME280;35385;55.668;37.508;2022-12-18T03:54:17;-235549.19;;;51.39;0.00
36600;BME280;35385;55.668;37.508;2022-12-18T03:55:19;-235373.94;;;51.42;0.00
36600;BME280;35385;55.668;37.508;2022-12-18T03:56:20;-235549.19;;;51.39;0.00
36600;BME280;35385;55.668;37.508;2022-12-18T03:57:24;-236261.09;;;51.29;0.00
36600;BME280;35385;55.668;37.508;2022-12-18T03:58:25;-236643.88;;;51.24;0.00
36600;BME280;35385;55.668;37.508;2022-12-18T03:59:26;-236366.78;;;51.28;0.00
36600;BME280;35385;55.668;37.508;2022-12-18T04:00:29;-236130.03;;;51.31;0.00
36600;BME280;35385;55.668;37.508;2022-12-18T04:01:31;-235814.72;;;51.36;0.00
36600;BME280;35385;55.668;37.508;2022-12-18T04:02:33;-235553.88;;;51.39;0.00
36600;BME280;35385;55.668;37.508;2022-12-18T04:03:35;-235489.53;;;51.40;0.00
36600;BME280;35385;55.668;37.508;2022-12-18T04:04:37;-235517.56;;;51.40;0.00
36600;BME280;35385;55.668;37.508;2022-12-18T04:05:38;-235646.22;;;51.38;0.00
36600;BME280;35385;55.668;37.508;2022-12-18T04:06:39;-235452.34;;;51.41;0.00
36600;BME280;35385;55.668;37.508;2022-12-18T04:07:41;-235546.72;;;51.39;0.00
36600;BME280;35385;55.668;37.508;2022-12-18T04:08:42;-235558.53;;;51.39;0.00
36600;BME280;35385;55.668;37.508;2022-12-18T04:09:42;-235675.94;;;51.37;0.00
36600;BME280;35385;55.668;37.508;2022-12-18T04:10:43;-235480.19;;;51.40;0.00
36600;BME280;35385;55.668;37.508;2022-12-18T04:11:44;-235367.13;;;51.41;0.00
36600;BME280;35385;55.668;37.508;2022-12-18T04:12:45;-235417.47;;;51.40;0.00
36600;BME280;35385;55.668;37.508;2022-12-18T04:13:46;-235562.13;;;51.38;0.00
36600;BME280;35385;55.668;37.508;2022-12-18T04:14:46;-235424.16;;;51.40;0.00
36600;BME280;35385;55.668;37.508;2022-12-18T04:15:47;-235414.81;;;51.40;0.00
36600;BME280;35385;55.668;37.508;2022-12-18T04:16:47;-235483.81;;;51.39;0.00
36600;BME280;35385;55.668;37.508;2022-12-18T04:17:48;-235483.81;;;51.39;0.00
36600;BME280;35385;55.668;37.508;2022-12-18T04:18:48;-235196.81;;;51.43;0.00
36600;BME280;35385;55.668;37.508;2022-12-18T04:19:49;-235349.56;;;51.41;0.00
36600;BME280;35385;55.668;37.508;2022-12-18T04:20:50;-235424.16;;;51.40;0.00
36600;BME280;35385;55.668;37.508;2022-12-18T04:21:50;-234992.00;;;51.46;0.00
36600;BME280;35385;55.668;37.508;2022-12-18T04:22:50;-234776.16;;;51.49;0.00
36600;BME280;35385;55.668;37.508;2022-12-18T04:23:51;-234429.56;;;51.53;0.00
36600;BME280;35385;55.668;37.508;2022-12-18T04:24:51;-234512.25;;;51.52;0.00
36600;BME280;35385;55.668;37.508;2022-12-18T04:25:51;-233857.75;;;51.61;0.00
36600;BME280;35385;55.668;37.508;2022-12-18T04:26:52;-233813.44;;;51.62;0.00
36600;BME280;35385;55.668;37.508;2022-12-18T04:27:52;-234389.53;;;51.54;0.00
36600;BME280;35385;55.668;37.508;2022-12-18T04:28:52;-234380.19;;;51.54;0.00
36600;BME280;35385;55.668;37.508;2022-12-18T04:29:53;-234430.84;;;51.53;0.00
36600;BME280;35385;55.668;37.508;2022-12-18T04:30:53;-234099.03;;;51.57;0.00
36600;BME280;35385;55.668;37.508;2022-12-18T04:31:53;-234352.19;;;51.54;0.00
36600;BME280;35385;55.668;37.508;2022-12-18T04:32:54;-234373.53;;;51.53;0.00
36600;BME280;35385;55.668;37.508;2022-12-18T04:33:54;-234097.06;;;51.57;0.00
36600;BME280;35385;55.668;37.508;2022-12-18T04:34:55;-234006.28;;;51.58;0.00
36600;BME280;35385;55.668;37.508;2022-12-18T04:35:55;-233877.19;;;51.60;0.00
36600;BME280;35385;55.668;37.508;2022-12-18T04:36:55;-233928.00;;;51.59;0.00
36600;BME280;35385;55.668;37.508;2022-12-18T04:37:56;-234261.34;;;51.55;0.00
36600;BME280;35385;55.668;37.508;2022-12-18T04:38:56;-234393.47;;;51.53;0.00
36600;BME280;35385;55.668;37.508;2022-12-18T04:39:56;-234393.47;;;51.53;0.00
36600;BME280;35385;55.668;37.508;2022-12-18T04:40:57;-234097.06;;;51.57;0.00
36600;BME280;35385;55.668;37.508;2022-12-18T04:42:00;-234252.03;;;51.55;0.00
36600;BME280;35385;55.668;37.508;2022-12-18T04:43:00;-234171.91;;;51.55;0.00
36600;BME280;35385;55.668;37.508;2022-12-18T04:44:01;-234345.47;;;51.53;0.00
36600;BME280;35385;55.668;37.508;2022-12-18T04:45:01;-234442.19;;;51.52;0.00
36600;BME280;35385;55.668;37.508;2022-12-18T04:46:06;-234613.50;;;51.49;0.00
36600;BME280;35385;55.668;37.508;2022-12-18T04:47:07;-234472.84;;;51.52;0.00
36600;BME280;35385;55.668;37.508;2022-12-18T04:48:07;-233429.31;;;51.66;0.00
36600;BME280;35385;55.668;37.508;2022-12-18T04:49:08;-233117.63;;;51.70;0.00
36600;BME280;35385;55.668;37.508;2022-12-18T04:50:10;-232424.91;;;51.79;0.00
36600;BME280;35385;55.668;37.508;2022-12-18T04:51:10;-232454.41;;;51.78;0.00
36600;BME280;35385;55.668;37.508;2022-12-18T04:52:11;-232876.66;;;51.73;0.00
36600;BME280;35385;55.668;37.508;2022-12-18T04:53:11;-233185.44;;;51.69;0.00
36600;BME280;35385;55.668;37.508;2022-12-18T04:54:11;-233271.91;;;51.68;0.00
36600;BME280;35385;55.668;37.508;2022-12-18T04:55:12;-233432.13;;;51.65;0.00
36600;BME280;35385;55.668;37.508;2022-12-18T04:56:13;-233483.06;;;51.65;0.00
36600;BME280;35385;55.668;37.508;2022-12-18T04:57:14;-233339.66;;;51.67;0.00
36600;BME280;35385;55.668;37.508;2022-12-18T04:58:14;-233122.28;;;51.70;0.00
36600;BME280;35385;55.668;37.508;2022-12-18T04:59:15;-233415.34;;;51.66;0.00
36600;BME280;35385;55.668;37.508;2022-12-18T05:00:15;-233513.84;;;51.65;0.00
36600;BME280;35385;55.668;37.508;2022-12-18T05:01:16;-233552.59;;;51.64;0.00
36600;BME280;35385;55.668;37.508;2022-12-18T05:02:17;-233764.88;;;51.61;0.00
36600;BME280;35385;55.668;37.508;2022-12-18T05:03:17;-234066.38;;;51.57;0.00
36600;BME280;35385;55.668;37.508;2022-12-18T05:04:18;-234087.75;;;51.57;0.00
36600;BME280;35385;55.668;37.508;2022-12-18T05:05:18;-234138.56;;;51.56;0.00
36600;BME280;35385;55.668;37.508;2022-12-18T05:06:19;-233729.44;;;51.62;0.00
36600;BME280;35385;55.668;37.508;2022-12-18T05:07:19;-233546.06;;;51.64;0.00
36600;BME280;35385;55.668;37.508;2022-12-18T05:08:19;-233392.00;;;51.66;0.00
36600;BME280;35385;55.668;37.508;2022-12-18T05:09:20;-233392.00;;;51.66;0.00
36600;BME280;35385;55.668;37.508;2022-12-18T05:10:20;-233205.56;;;51.68;0.00
36600;BME280;35385;55.668;37.508;2022-12-18T05:11:21;-232658.50;;;51.75;0.00
36600;BME280;35385;55.668;37.508;2022-12-18T05:12:24;-232805.53;;;51.74;0.00
36600;BME280;35385;55.668;37.508;2022-12-18T05:13:25;-233186.88;;;51.68;0.00
36600;BME280;35385;55.668;37.508;2022-12-18T05:14:25;-233205.56;;;51.68;0.00
36600;BME280;35385;55.668;37.508;2022-12-18T05:15:31;-232280.84;;;51.80;0.00
36600;BME280;35385;55.668;37.508;2022-12-18T05:16:31;-232476.06;;;51.78;0.00
36600;BME280;35385;55.668;37.508;2022-12-18T05:17:32;-232601.28;;;51.76;0.00
36600;BME280;35385;55.668;37.508;2022-12-18T05:18:32;-233117.22;;;51.69;0.00
36600;BME280;35385;55.668;37.508;2022-12-18T05:19:33;-233026.47;;;51.71;0.00
36600;BME280;35385;55.668;37.508;2022-12-18T05:20:33;-232596.63;;;51.76;0.00
36600;BME280;35385;55.668;37.508;2022-12-18T05:21:33;-233017.16;;;51.71;0.00
36600;BME280;35385;55.668;37.508;2022-12-18T05:22:34;-232916.50;;;51.72;0.00
36600;BME280;35385;55.668;37.508;2022-12-18T05:23:34;-233098.53;;;51.69;0.00
36600;BME280;35385;55.668;37.508;2022-12-18T05:24:35;-233548.81;;;51.63;0.00
36600;BME280;35385;55.668;37.508;2022-12-18T05:25:35;-233991.66;;;51.57;0.00
36600;BME280;35385;55.668;37.508;2022-12-18T05:26:36;-233952.97;;;51.58;0.00
36600;BME280;35385;55.668;37.508;2022-12-18T05:27:36;-233005.97;;;51.70;0.00
36600;BME280;35385;55.668;37.508;2022-12-18T05:28:36;-232936.28;;;51.71;0.00
36600;BME280;35385;55.668;37.508;2022-12-18T05:29:37;-233255.59;;;51.67;0.00
36600;BME280;35385;55.668;37.508;2022-12-18T05:30:37;-233140.19;;;51.68;0.00
36600;BME280;35385;55.668;37.508;2022-12-18T05:31:38;-232922.28;;;51.71;0.00
36600;BME280;35385;55.668;37.508;2022-12-18T05:32:38;-232057.41;;;51.82;0.00
36600;BME280;35385;55.668;37.508;2022-12-18T05:33:38;-232201.50;;;51.80;0.00
36600;BME280;35385;55.668;37.508;2022-12-18T05:34:39;-232517.22;;;51.76;0.00
36600;BME280;35385;55.668;37.508;2022-12-18T05:35:39;-233037.84;;;51.69;0.00
36600;BME280;35385;55.668;37.508;2022-12-18T05:36:40;-233289.28;;;51.66;0.00
36600;BME280;35385;55.668;37.508;2022-12-18T05:37:40;-233488.16;;;51.63;0.00
36600;BME280;35385;55.668;37.508;2022-12-18T05:38:41;-233222.94;;;51.67;0.00
36600;BME280;35385;55.668;37.508;2022-12-18T05:39:42;-231832.53;;;51.86;0.00
36600;BME280;35385;55.668;37.508;2022-12-18T05:40:42;-233483.44;;;51.63;0.00
36600;BME280;35385;55.668;37.508;2022-12-18T05:41:43;-232106.84;;;51.81;0.00
36600;BME280;35385;55.668;37.508;2022-12-18T05:42:43;-232102.19;;;51.81;0.00
36600;BME280;35385;55.668;37.508;2022-12-18T05:43:44;-232620.88;;;51.74;0.00
36600;BME280;35385;55.668;37.508;2022-12-18T05:44:44;-232972.88;;;51.70;0.00
36600;BME280;35385;55.668;37.508;2022-12-18T05:45:44;-232745.97;;;51.73;0.00
36600;BME280;35385;55.668;37.508;2022-12-18T05:46:45;-232164.16;;;51.80;0.00
36600;BME280;35385;55.668;37.508;2022-12-18T05:47:45;-231560.72;;;51.88;0.00
36600;BME280;35385;55.668;37.508;2022-12-18T05:48:46;-231182.78;;;51.93;0.00